createdAt,value
2022-12-28T00:01:52.429Z,98447.75
2022-12-28T00:04:19.994Z,98453.16
2022-12-28T00:06:47.861Z,98465.19
2022-12-28T00:09:15.354Z,98460.41
2022-12-28T00:11:43.119Z,98470.75
2022-12-28T00:14:10.621Z,98460.38
2022-12-28T00:16:41.594Z,98471.53
2022-12-28T00:19:14.714Z,98477.59
2022-12-28T00:21:46.070Z,98481.34
2022-12-28T00:24:23.146Z,98470.81
2022-12-28T00:26:51.080Z,98467.19
2022-12-28T00:29:19.393Z,98462.91
2022-12-28T00:31:47.155Z,98464.06
2022-12-28T00:34:14.833Z,98459.94
2022-12-28T00:37:09.482Z,98450.91
2022-12-28T00:39:30.218Z,98447.44
2022-12-28T00:41:57.676Z,98445.31
2022-12-28T00:44:25.239Z,98440.88
2022-12-28T00:46:52.726Z,98446.81
2022-12-28T00:49:20.215Z,98445.66
2022-12-28T00:51:47.720Z,98450.09
2022-12-28T00:54:15.276Z,98445.97
2022-12-28T00:56:46.499Z,98441.38
2022-12-28T00:59:15.382Z,98441.38
2022-12-28T01:01:43.058Z,98440.75
2022-12-28T01:04:10.715Z,98432.19
2022-12-28T01:06:38.300Z,98435.81
2022-12-28T01:09:06.086Z,98425.94
2022-12-28T01:11:33.604Z,98421.34
2022-12-28T01:14:02.928Z,98418.06
2022-12-28T01:16:34.237Z,98423.16
2022-12-28T01:19:04.884Z,98416.41
2022-12-28T01:21:34.732Z,98412.63
2022-12-28T01:24:08.052Z,98415.91
2022-12-28T01:26:36.141Z,98422.63
2022-12-28T01:29:03.860Z,98414.22
2022-12-28T01:31:33.002Z,98406.84
2022-12-28T01:34:01.505Z,98413.22
2022-12-28T01:36:31.781Z,98402.84
2022-12-28T01:39:01.769Z,98403.69
2022-12-28T01:41:33.603Z,98401.22
2022-12-28T01:44:01.126Z,98393.28
2022-12-28T01:46:42.620Z,98392.78
2022-12-28T01:49:14.060Z,98395.09
2022-12-28T01:52:00.474Z,98381.09
2022-12-28T01:54:33.471Z,98388.47
2022-12-28T01:57:01.285Z,98373.03
2022-12-28T01:59:33.686Z,98375.97
2022-12-28T02:02:01.458Z,98368.09
2022-12-28T02:04:29.310Z,98372.53
2022-12-28T02:06:57.163Z,98364.19
2022-12-28T02:09:33.370Z,98361.06
2022-12-28T02:12:01.395Z,98356.94
2022-12-28T02:14:29.701Z,98356.94
2022-12-28T02:16:57.345Z,98346.91
2022-12-28T02:19:47.801Z,98349.06
2022-12-28T02:22:31.441Z,98340.13
2022-12-28T02:25:23.191Z,98332.75
2022-12-28T02:28:19.704Z,98320.06
2022-12-28T02:30:54.746Z,98320.25
2022-12-28T02:33:35.871Z,98308.25
2022-12-28T02:36:18.281Z,98293.66
2022-12-28T02:39:03.716Z,98292.16
2022-12-28T02:41:33.892Z,98296.59
2022-12-28T02:44:02.000Z,98285.75
2022-12-28T02:46:52.490Z,98281.94
2022-12-28T02:49:41.231Z,98281.88
2022-12-28T02:52:23.711Z,98279.75
2022-12-28T02:55:15.991Z,98277.25
2022-12-28T02:58:02.594Z,98269.06
2022-12-28T03:00:43.752Z,98264.34
2022-12-28T03:03:26.304Z,98268.97
2022-12-28T03:06:31.773Z,98258.63
2022-12-28T03:09:13.439Z,98251.94
2022-12-28T03:11:59.236Z,98244.84
2022-12-28T03:14:41.119Z,98249.97
2022-12-28T03:17:28.818Z,98242.25
2022-12-28T03:20:18.371Z,98230.78
2022-12-28T03:23:04.440Z,98234.75
2022-12-28T03:25:56.043Z,98223.88
2022-12-28T03:28:51.279Z,98225.03
2022-12-28T03:31:24.320Z,98225.22
2022-12-28T03:34:09.084Z,98219.28
2022-12-28T03:37:00.752Z,98218.97
2022-12-28T03:39:38.062Z,98204.00
2022-12-28T03:42:44.807Z,98197.75
2022-12-28T03:45:46.014Z,98182.44
2022-12-28T03:48:18.104Z,98187.03
2022-12-28T03:50:48.708Z,98174.06
2022-12-28T03:53:21.901Z,98173.91
2022-12-28T03:55:52.686Z,98174.06
2022-12-28T03:58:22.092Z,98172.91
2022-12-28T04:00:50.663Z,98163.41
2022-12-28T04:03:21.086Z,98163.72
2022-12-28T04:05:48.702Z,98163.56
2022-12-28T04:08:16.579Z,98154.03
2022-12-28T04:10:44.224Z,98154.69
2022-12-28T04:13:11.848Z,98148.94
2022-12-28T04:16:03.259Z,98151.06
2022-12-28T04:18:33.654Z,98140.41
2022-12-28T04:21:01.938Z,98144.31
2022-12-28T04:23:31.131Z,98147.28
2022-12-28T04:26:20.836Z,98137.25
2022-12-28T04:28:51.075Z,98124.44
2022-12-28T04:31:21.427Z,98121.81
2022-12-28T04:33:57.525Z,98113.09
2022-12-28T04:36:25.820Z,98114.75
2022-12-28T04:38:53.292Z,98107.19
2022-12-28T04:41:20.875Z,98109.50
2022-12-28T04:43:48.394Z,98106.88
2022-12-28T04:46:17.484Z,98115.38
2022-12-28T04:48:45.133Z,98105.69
2022-12-28T04:51:20.034Z,98105.34
2022-12-28T04:53:47.569Z,98105.53
2022-12-28T04:56:16.670Z,98104.19
2022-12-28T04:58:44.701Z,98098.91
2022-12-28T05:01:15.484Z,98100.56
2022-12-28T05:03:48.265Z,98097.91
2022-12-28T05:06:23.229Z,98091.63
2022-12-28T05:08:51.024Z,98077.97
2022-12-28T05:11:26.753Z,98079.97
2022-12-28T05:13:54.374Z,98072.06
2022-12-28T05:16:24.832Z,98078.47
2022-12-28T05:18:52.541Z,98071.22
2022-12-28T05:25:33.100Z,98074.19
2022-12-28T05:28:00.683Z,98072.03
2022-12-28T05:30:28.120Z,98065.41
2022-12-28T05:32:55.570Z,98062.56
2022-12-28T05:35:22.990Z,98051.16
2022-12-28T05:37:50.482Z,98047.66
2022-12-28T05:40:17.964Z,98046.50
2022-12-28T05:42:51.210Z,98030.19
2022-12-28T05:45:19.305Z,98029.53
2022-12-28T05:47:46.921Z,98030.81
2022-12-28T05:50:14.435Z,98039.34
2022-12-28T05:52:42.026Z,98033.03
2022-12-28T05:55:09.931Z,98024.94
2022-12-28T05:57:37.559Z,98029.03
2022-12-28T06:00:06.025Z,98026.25
2022-12-28T06:02:39.347Z,98031.06
2022-12-28T06:05:07.617Z,98048.66
2022-12-28T06:07:35.038Z,98037.75
2022-12-28T06:10:02.549Z,98044.16
2022-12-28T06:12:29.954Z,98030.25
2022-12-28T06:14:57.548Z,98044.38
2022-12-28T06:17:24.961Z,98037.22
2022-12-28T06:19:52.475Z,98033.69
2022-12-28T06:22:19.879Z,98038.97
2022-12-28T06:24:47.457Z,98030.19
2022-12-28T06:27:14.917Z,98030.66
2022-12-28T06:29:42.352Z,98028.72
2022-12-28T06:32:09.862Z,98030.53
2022-12-28T06:34:37.394Z,98028.22
2022-12-28T06:37:04.863Z,98020.81
2022-12-28T06:39:32.331Z,98027.81
2022-12-28T06:41:59.808Z,98025.00
2022-12-28T06:44:27.254Z,98021.38
2022-12-28T06:46:54.663Z,98023.00
2022-12-28T06:49:22.211Z,98023.00
2022-12-28T06:51:49.677Z,98022.75
2022-12-28T06:54:17.173Z,98029.47
2022-12-28T06:56:44.542Z,98016.09
2022-12-28T06:59:12.175Z,98008.53
2022-12-28T07:01:41.585Z,98010.38
2022-12-28T07:04:10.351Z,98013.16
2022-12-28T07:06:43.789Z,98015.63
2022-12-28T07:09:14.579Z,98009.56
2022-12-28T07:11:42.922Z,97998.81
2022-12-28T07:14:10.728Z,98008.53
2022-12-28T07:19:04.767Z,98000.19
2022-12-28T07:21:35.566Z,97992.75
2022-12-28T07:24:04.810Z,97995.09
2022-12-28T07:26:34.505Z,97997.72
2022-12-28T07:29:04.240Z,97991.66
2022-12-28T07:31:44.095Z,97986.66
2022-12-28T07:34:15.020Z,97983.28
2022-12-28T07:36:42.570Z,97970.63
2022-12-28T07:39:10.616Z,97970.19
2022-12-28T07:41:38.333Z,97966.09
2022-12-28T07:44:06.809Z,97961.63
2022-12-28T07:46:35.806Z,97959.09
2022-12-28T07:49:04.202Z,97940.44
2022-12-28T07:51:35.196Z,97944.53
2022-12-28T07:54:04.638Z,97942.34
2022-12-28T07:59:01.665Z,97932.81
2022-12-28T08:01:32.003Z,97929.00
2022-12-28T08:04:02.404Z,97932.81
2022-12-28T08:06:33.027Z,97931.53
2022-12-28T08:09:01.364Z,97930.19
2022-12-28T08:11:31.922Z,97938.91
2022-12-28T08:14:00.056Z,97932.19
2022-12-28T08:16:30.171Z,97928.72
2022-12-28T08:18:59.791Z,97929.44
2022-12-28T08:21:47.558Z,97921.97
2022-12-28T08:24:18.204Z,97917.34
2022-12-28T08:26:46.907Z,97922.63
2022-12-28T08:29:19.291Z,97921.25
2022-12-28T08:31:47.617Z,97922.78
2022-12-28T08:34:20.819Z,97928.88
2022-12-28T08:36:48.477Z,97920.78
2022-12-28T08:39:15.934Z,97923.50
2022-12-28T08:41:43.587Z,97930.63
2022-12-28T08:44:11.127Z,97917.44
2022-12-28T08:46:40.541Z,97915.38
2022-12-28T08:49:08.203Z,97913.94
2022-12-28T08:51:39.971Z,97905.94
2022-12-28T08:54:08.854Z,97909.13
2022-12-28T08:56:39.428Z,97901.00
2022-12-28T08:59:07.423Z,97908.00
2022-12-28T09:01:43.573Z,97898.69
2022-12-28T09:04:18.355Z,97898.16
2022-12-28T09:06:45.859Z,97899.56
2022-12-28T09:09:15.443Z,97906.06
2022-12-28T09:11:43.837Z,97897.31
2022-12-28T09:14:20.309Z,97882.97
2022-12-28T09:16:51.595Z,97885.56
2022-12-28T09:19:19.185Z,97876.13
2022-12-28T09:21:49.336Z,97872.28
2022-12-28T09:24:17.092Z,97883.91
2022-12-28T09:26:45.019Z,97871.34
2022-12-28T09:29:14.025Z,97866.91
2022-12-28T09:31:42.218Z,97861.31
2022-12-28T09:37:00.952Z,97849.53
2022-12-28T09:39:28.905Z,97850.94
2022-12-28T09:41:59.273Z,97848.63
2022-12-28T09:44:50.226Z,97849.31
2022-12-28T09:47:26.833Z,97840.88
2022-12-28T09:50:19.037Z,97833.22
2022-12-28T09:53:07.996Z,97830.38
2022-12-28T09:55:41.715Z,97836.88
2022-12-28T09:58:16.473Z,97835.03
2022-12-28T10:00:48.964Z,97824.50
2022-12-28T10:03:20.538Z,97815.75
2022-12-28T10:05:48.467Z,97810.91
2022-12-28T10:08:19.173Z,97812.78
2022-12-28T10:10:49.165Z,97802.81
2022-12-28T10:13:53.511Z,97802.69
2022-12-28T10:16:20.847Z,97793.94
2022-12-28T10:18:49.227Z,97793.34
2022-12-28T10:21:20.464Z,97795.56
2022-12-28T10:24:29.195Z,97788.22
2022-12-28T10:26:43.129Z,97795.75
2022-12-28T10:29:18.877Z,97782.94
2022-12-28T10:32:00.825Z,97787.22
2022-12-28T10:34:34.685Z,97777.41
2022-12-28T10:37:15.436Z,97772.34
2022-12-28T10:40:20.925Z,97773.53
2022-12-28T10:42:52.588Z,97758.81
2022-12-28T10:45:24.128Z,97760.25
2022-12-28T10:47:54.535Z,97751.47
2022-12-28T10:51:02.030Z,97750.59
2022-12-28T10:53:51.766Z,97745.06
2022-12-28T10:56:29.175Z,97730.75
2022-12-28T10:59:12.188Z,97737.63
2022-12-28T11:01:41.824Z,97721.06
2022-12-28T11:04:27.535Z,97733.22
2022-12-28T11:07:02.623Z,97731.94
2022-12-28T11:09:35.580Z,97731.72
2022-12-28T11:12:24.283Z,97728.69
2022-12-28T11:14:53.079Z,97734.19
2022-12-28T11:17:23.700Z,97751.53
2022-12-28T11:19:55.827Z,97735.09
2022-12-28T11:22:29.297Z,97737.00
2022-12-28T11:25:00.060Z,97731.47
2022-12-28T11:27:28.038Z,97737.22
2022-12-28T11:29:55.990Z,97724.22
2022-12-28T11:32:27.739Z,97714.06
2022-12-28T11:34:57.014Z,97719.00
2022-12-28T11:37:24.587Z,97710.63
2022-12-28T11:39:53.032Z,97714.50
2022-12-28T11:42:41.090Z,97707.78
2022-12-28T11:45:13.511Z,97707.97
2022-12-28T11:47:41.104Z,97706.13
2022-12-28T11:50:33.915Z,97690.38
2022-12-28T11:53:06.634Z,97694.41
2022-12-28T11:55:50.888Z,97687.22
2022-12-28T11:58:30.185Z,97693.72
2022-12-28T12:01:00.206Z,97680.63
2022-12-28T12:03:58.930Z,97686.19
2022-12-28T12:06:41.757Z,97682.97
2022-12-28T12:09:21.646Z,97683.56
2022-12-28T12:11:54.117Z,97684.63
2022-12-28T12:14:39.089Z,97680.38
2022-12-28T12:17:33.980Z,97670.88
2022-12-28T12:20:27.807Z,97671.50
2022-12-28T12:23:09.748Z,97676.00
2022-12-28T12:25:42.629Z,97680.94
2022-12-28T12:28:34.458Z,97676.41
2022-12-28T12:31:04.788Z,97677.31
2022-12-28T12:33:36.132Z,97674.69
2022-12-28T12:36:19.049Z,97682.41
2022-12-28T12:38:49.278Z,97669.97
2022-12-28T12:41:24.032Z,97664.06
2022-12-28T12:44:19.115Z,97663.53
2022-12-28T12:47:24.173Z,97661.34
2022-12-28T12:50:20.499Z,97664.00
2022-12-28T12:53:14.634Z,97662.75
2022-12-28T12:55:57.854Z,97661.50
2022-12-28T12:58:45.620Z,97657.03
2022-12-28T13:01:24.642Z,97653.34
2022-12-28T13:03:55.410Z,97661.25
2022-12-28T13:06:30.512Z,97653.78
2022-12-28T13:09:05.596Z,97652.16
2022-12-28T13:11:38.644Z,97662.13
2022-12-28T13:14:06.974Z,97653.94
2022-12-28T13:16:34.424Z,97646.84
2022-12-28T13:19:07.455Z,97651.50
2022-12-28T13:21:51.106Z,97657.19
2022-12-28T13:24:30.337Z,97671.44
2022-12-28T13:27:00.171Z,97661.03
2022-12-28T13:29:40.957Z,97663.41
2022-12-28T13:32:31.434Z,97663.81
2022-12-28T13:35:01.974Z,97664.41
2022-12-28T13:37:29.481Z,97660.75
2022-12-28T13:40:15.454Z,97659.34
2022-12-28T13:43:03.235Z,97660.69
2022-12-28T13:45:30.897Z,97661.34
2022-12-28T13:47:58.563Z,97667.44
2022-12-28T13:50:33.796Z,97664.97
2022-12-28T13:53:06.120Z,97669.69
2022-12-28T13:55:46.320Z,97674.53
2022-12-28T13:58:36.976Z,97665.56
2022-12-28T14:01:09.747Z,97661.94
2022-12-28T14:03:41.400Z,97668.44
2022-12-28T14:06:16.292Z,97669.44
2022-12-28T14:08:44.938Z,97673.91
2022-12-28T14:11:13.102Z,97667.81
2022-12-28T14:13:40.942Z,97671.88
2022-12-28T14:16:09.574Z,97671.66
2022-12-28T14:18:37.928Z,97675.13
2022-12-28T14:21:06.479Z,97671.88
2022-12-28T14:23:36.586Z,97672.06
2022-12-28T14:26:08.014Z,97673.28
2022-12-28T14:28:44.218Z,97670.22
2022-12-28T14:31:19.698Z,97677.53
2022-12-28T14:33:59.337Z,97670.84
2022-12-28T14:36:30.725Z,97670.44
2022-12-28T14:39:04.707Z,97668.78
2022-12-28T14:41:40.475Z,97661.03
2022-12-28T14:44:17.647Z,97661.25
2022-12-28T14:46:45.524Z,97664.31
2022-12-28T14:49:33.582Z,97654.53
2022-12-28T14:52:09.944Z,97652.91
2022-12-28T14:54:51.561Z,97662.66
2022-12-28T14:57:35.815Z,97673.66
2022-12-28T15:00:28.536Z,97648.03
2022-12-28T15:02:57.556Z,97654.53
2022-12-28T15:05:39.986Z,97656.59
2022-12-28T15:08:08.754Z,97659.22
2022-12-28T15:10:47.999Z,97655.97
2022-12-28T15:13:16.950Z,97647.03
2022-12-28T15:15:46.057Z,97646.81
2022-12-28T15:18:13.584Z,97654.16
2022-12-28T15:20:41.006Z,97653.94
2022-12-28T15:23:08.631Z,97648.03
2022-12-28T15:25:36.446Z,97648.66
2022-12-28T15:28:04.205Z,97642.56
2022-12-28T15:30:32.014Z,97660.84
2022-12-28T15:32:59.659Z,97658.63
2022-12-28T15:35:27.323Z,97650.50
2022-12-28T15:37:54.871Z,97644.00
2022-12-28T15:40:22.289Z,97651.31
2022-12-28T15:42:49.846Z,97649.06
2022-12-28T15:45:18.228Z,97639.53
2022-12-28T15:47:45.875Z,97651.13
2022-12-28T15:50:13.501Z,97637.91
2022-12-28T15:52:41.075Z,97637.06
2022-12-28T15:55:08.996Z,97635.44
2022-12-28T15:57:36.580Z,97636.47
2022-12-28T16:00:05.220Z,97625.69
2022-12-28T16:02:33.592Z,97632.00
2022-12-28T16:05:01.221Z,97625.09
2022-12-28T16:07:28.722Z,97617.56
2022-12-28T16:09:56.208Z,97624.88
2022-12-28T16:12:23.730Z,97626.31
2022-12-28T16:14:51.148Z,97624.88
2022-12-28T16:17:18.740Z,97624.44
2022-12-28T16:19:46.188Z,97613.66
2022-12-28T16:22:13.730Z,97614.09
2022-12-28T16:24:41.121Z,97607.38
2022-12-28T16:27:09.748Z,97606.56
2022-12-28T16:29:37.346Z,97597.59
2022-12-28T16:32:05.318Z,97602.28
2022-12-28T16:34:32.924Z,97610.00
2022-12-28T16:37:00.511Z,97605.09
2022-12-28T16:39:29.114Z,97602.47
2022-12-28T16:41:57.688Z,97603.88
2022-12-28T16:44:27.484Z,97608.97
2022-12-28T16:46:58.472Z,97607.34
2022-12-28T16:49:27.159Z,97603.66
2022-12-28T16:51:54.752Z,97604.28
2022-12-28T16:54:24.084Z,97596.53
2022-12-28T16:56:53.003Z,97594.28
2022-12-28T16:59:24.639Z,97588.75
2022-12-28T17:01:53.706Z,97591.81
2022-12-28T17:04:22.210Z,97593.84
2022-12-28T17:06:51.226Z,97595.44
2022-12-28T17:09:19.705Z,97593.81
2022-12-28T17:11:50.939Z,97588.50
2022-12-28T17:14:42.031Z,97584.44
2022-12-28T17:17:07.535Z,97585.69
2022-12-28T17:19:35.823Z,97585.28
2022-12-28T17:22:04.580Z,97579.56
2022-12-28T17:24:32.028Z,97584.41
2022-12-28T17:27:06.839Z,97574.41
2022-12-28T17:29:37.278Z,97578.25
2022-12-28T17:32:06.112Z,97571.31
2022-12-28T17:34:33.739Z,97575.34
2022-12-28T17:37:01.246Z,97570.84
2022-12-28T17:39:31.049Z,97569.19
2022-12-28T17:42:00.717Z,97573.84
2022-12-28T17:44:28.154Z,97569.56
2022-12-28T17:46:55.673Z,97571.56
2022-12-28T17:49:23.079Z,97574.63
2022-12-28T17:51:50.644Z,97569.56
2022-12-28T17:54:18.123Z,97575.28
2022-12-28T17:56:45.689Z,97579.31
2022-12-28T17:59:17.132Z,97574.88
2022-12-28T18:01:44.897Z,97574.88
2022-12-28T18:04:12.552Z,97571.03
2022-12-28T18:06:40.182Z,97573.25
2022-12-28T18:09:07.572Z,97582.59
2022-12-28T18:11:35.113Z,97578.13
2022-12-28T18:14:02.611Z,97578.56
2022-12-28T18:16:30.216Z,97572.41
2022-12-28T18:18:57.772Z,97563.84
2022-12-28T18:21:25.245Z,97572.22
2022-12-28T18:23:53.208Z,97567.53
2022-12-28T18:26:23.423Z,97567.53
2022-12-28T18:28:50.889Z,97568.56
2022-12-28T18:31:18.630Z,97574.69
2022-12-28T18:33:46.309Z,97561.66
2022-12-28T18:36:17.832Z,97562.25
2022-12-28T18:38:47.261Z,97551.25
2022-12-28T18:41:17.826Z,97556.78
2022-12-28T18:43:45.458Z,97554.38
2022-12-28T18:46:13.255Z,97562.34
2022-12-28T18:48:41.754Z,97557.25
2022-12-28T18:51:11.568Z,97555.44
2022-12-28T18:53:40.179Z,97558.28
2022-12-28T18:56:12.888Z,97552.38
2022-12-28T18:58:41.831Z,97567.44
2022-12-28T19:01:32.983Z,97560.75
2022-12-28T19:04:01.913Z,97569.13
2022-12-28T19:06:30.414Z,97561.59
2022-12-28T19:09:01.224Z,97564.25
2022-12-28T19:11:29.177Z,97558.09
2022-12-28T19:13:57.271Z,97553.00
2022-12-28T19:16:31.128Z,97556.63
2022-12-28T19:18:59.597Z,97554.41
2022-12-28T19:21:35.317Z,97546.06
2022-12-28T19:24:10.527Z,97540.38
2022-12-28T19:26:38.185Z,97528.56
2022-12-28T19:29:05.973Z,97528.19
2022-12-28T19:31:35.026Z,97523.91
2022-12-28T19:34:02.587Z,97517.78
2022-12-28T19:36:30.288Z,97514.72
2022-12-28T19:38:58.297Z,97521.69
2022-12-28T19:41:26.584Z,97516.19
2022-12-28T19:43:54.112Z,97513.75
2022-12-28T19:46:31.523Z,97496.06
2022-12-28T19:49:01.625Z,97499.72
2022-12-28T19:51:31.709Z,97491.59
2022-12-28T19:54:01.267Z,97495.47
2022-12-28T19:56:28.920Z,97489.38
2022-12-28T19:59:04.946Z,97490.38
2022-12-28T20:01:34.948Z,97495.69
2022-12-28T20:04:07.381Z,97487.97
2022-12-28T20:06:40.430Z,97489.63
2022-12-28T20:09:07.878Z,97495.94
2022-12-28T20:11:35.830Z,97488.41
2022-12-28T20:14:04.517Z,97494.13
2022-12-28T20:16:33.859Z,97491.06
2022-12-28T20:19:01.933Z,97481.69
2022-12-28T20:21:29.516Z,97482.50
2022-12-28T20:23:57.011Z,97483.91
2022-12-28T20:26:25.207Z,97478.34
2022-12-28T20:28:52.921Z,97478.34
2022-12-28T20:31:20.570Z,97472.88
2022-12-28T20:33:48.419Z,97466.75
2022-12-28T20:36:24.329Z,97466.94
2022-12-28T20:38:53.659Z,97468.19
2022-12-28T20:41:50.851Z,97464.97
2022-12-28T20:44:26.960Z,97459.81
2022-12-28T20:46:55.742Z,97463.06
2022-12-28T20:49:25.225Z,97458.19
2022-12-28T20:51:53.539Z,97456.97
2022-12-28T20:54:21.755Z,97460.84
2022-12-28T20:56:54.810Z,97452.66
2022-12-28T20:59:25.206Z,97460.00
2022-12-28T21:01:53.297Z,97456.97
2022-12-28T21:04:22.298Z,97454.94
2022-12-28T21:06:49.792Z,97445.50
2022-12-28T21:09:17.350Z,97447.31
2022-12-28T21:11:44.751Z,97438.38
2022-12-28T21:14:12.347Z,97437.34
2022-12-28T21:16:39.787Z,97429.41
2022-12-28T21:19:07.342Z,97418.84
2022-12-28T21:21:34.760Z,97418.09
2022-12-28T21:24:03.312Z,97406.84
2022-12-28T21:26:30.841Z,97400.16
2022-12-28T21:28:59.205Z,97403.63
2022-12-28T21:31:26.760Z,97398.72
2022-12-28T21:33:56.183Z,97385.22
2022-12-28T21:36:23.666Z,97389.53
2022-12-28T21:38:51.220Z,97382.78
2022-12-28T21:41:39.874Z,97374.78
2022-12-28T21:44:12.005Z,97372.06
2022-12-28T21:46:39.766Z,97377.78
2022-12-28T21:49:08.092Z,97380.03
2022-12-28T21:51:36.249Z,97376.13
2022-12-28T21:54:33.676Z,97370.81
2022-12-28T21:57:01.294Z,97367.94
2022-12-28T21:59:28.752Z,97363.50
2022-12-28T22:02:15.005Z,97351.41
2022-12-28T22:05:03.291Z,97351.41
2022-12-28T22:07:32.091Z,97346.78
2022-12-28T22:10:18.147Z,97337.63
2022-12-28T22:12:45.700Z,97337.84
2022-12-28T22:15:40.145Z,97329.16
2022-12-28T22:21:15.122Z,97318.41
2022-12-28T22:23:42.639Z,97322.66
2022-12-28T22:26:10.204Z,97324.06
2022-12-28T22:28:37.701Z,97316.13
2022-12-28T22:31:06.750Z,97306.94
2022-12-28T22:33:34.500Z,97315.31
2022-12-28T22:36:19.082Z,97299.19
2022-12-28T22:38:46.818Z,97294.75
2022-12-28T22:41:14.612Z,97299.03
2022-12-28T22:43:42.272Z,97291.97
2022-12-28T22:46:11.933Z,97277.94
2022-12-28T22:48:39.596Z,97277.75
2022-12-28T22:51:09.647Z,97277.13
2022-12-28T22:53:37.513Z,97288.97
2022-12-28T22:56:08.200Z,97290.97
2022-12-28T22:58:35.825Z,97279.41
2022-12-28T23:01:10.175Z,97280.81
2022-12-28T23:03:38.888Z,97264.81
2022-12-28T23:06:07.427Z,97276.22
2022-12-28T23:08:35.429Z,97273.94
2022-12-28T23:11:05.875Z,97273.13
2022-12-28T23:13:33.619Z,97267.84
2022-12-28T23:16:04.441Z,97256.63
2022-12-28T23:18:53.722Z,97249.69
2022-12-28T23:21:42.024Z,97242.78
2022-12-28T23:24:31.043Z,97232.34
2022-12-28T23:27:18.624Z,97232.13
2022-12-28T23:29:46.464Z,97224.63
2022-12-28T23:32:13.943Z,97226.63
2022-12-28T23:34:41.547Z,97207.66
2022-12-28T23:37:08.976Z,97218.56
2022-12-28T23:39:36.568Z,97215.03
2022-12-28T23:42:04.029Z,97202.91
2022-12-28T23:44:31.519Z,97216.69
2022-12-28T23:46:59.844Z,97214.63
2022-12-28T23:49:27.524Z,97208.88
2022-12-28T23:51:55.146Z,97209.63
2022-12-28T23:54:22.618Z,97211.25
2022-12-28T23:56:50.113Z,97218.31
2022-12-28T23:59:17.636Z,97216.03
